Terminal Aerodrome Forecast
Issued by NWS Goodland, KS

Home | Current Version | Previous Version | Text Only | Print | Product List | Glossary On
Versions: 1 2 3 4 5 6 7 8 9 10 11 12 13 14 15 16
201
FTUS43 KGLD 101733
TAFGLD
TAF
KGLD 101733Z 1018/1118 17012KT P6SM SCT004
     FM101900 19010KT P6SM BKN200
     FM110200 21008KT P6SM BKN200
     FM110500 25008KT P6SM BKN200
     FM110700 28008KT P6SM BKN200
     FM110900 31008KT P6SM BKN080=

USA.gov is the U.S. government's official web portal to all federal, state and local government web resources and services.